Time;durP1;ratioP1;P1;durP2;ratioP2;P2;SDS_P1;SDS_P2;PMS_P1;PMS_P2;Temp;Humidity;BMP_temperature;BMP_pressure;BME280_temperature;BME280_humidity;BME280_pressure;Samples;Min_cycle;Max_cycle;Signal;HPM_P1;HPM_P2
2023/03/14 00:01:52;;;;;;;20.95;4.60;;;9.50;85.30;;;;;;5074608;28;20032;-78
2023/03/14 00:04:18;;;;;;;20.65;4.43;;;9.60;85.00;;;;;;5074655;28;20039;-78
2023/03/14 00:06:43;;;;;;;26.60;4.97;;;9.60;85.10;;;;;;5074336;28;20139;-78
2023/03/14 00:09:09;;;;;;;22.95;4.70;;;9.70;84.90;;;;;;5091358;28;20148;-78
2023/03/14 00:11:35;;;;;;;19.50;4.38;;;9.80;84.80;;;;;;5091298;28;20047;-78
2023/03/14 00:14:00;;;;;;;17.77;4.78;;;9.80;84.30;;;;;;5074680;28;20040;-79
2023/03/14 00:16:27;;;;;;;22.10;4.05;;;9.80;84.30;;;;;;5091287;28;20304;-78
2023/03/14 00:18:53;;;;;;;18.77;4.93;;;9.90;84.30;;;;;;5074780;28;20365;-79
2023/03/14 00:21:19;;;;;;;19.83;4.72;;;9.90;84.30;;;;;;5057761;28;20044;-79
2023/03/14 00:23:44;;;;;;;20.67;5.50;;;9.90;84.30;;;;;;5074590;28;20051;-79
2023/03/14 00:26:16;;;;;;;17.23;4.47;;;9.80;84.40;;;;;;5074351;28;20032;-79
2023/03/14 00:28:43;;;;;;;19.50;4.50;;;9.70;84.60;;;;;;5091203;28;20055;-79
2023/03/14 00:31:12;;;;;;;21.38;4.78;;;9.60;84.80;;;;;;5094448;28;20078;-79
2023/03/14 00:33:37;;;;;;;21.08;4.78;;;9.60;85.10;;;;;;5078410;28;20063;-79
2023/03/14 00:36:08;;;;;;;23.98;4.90;;;9.50;85.20;;;;;;5078163;28;20484;-78
2023/03/14 00:38:34;;;;;;;17.98;5.22;;;9.50;85.50;;;;;;5095278;28;20098;-79
2023/03/14 00:41:07;;;;;;;24.52;6.40;;;9.50;85.50;;;;;;5095207;28;20032;-78
2023/03/14 00:43:33;;;;;;;17.42;5.05;;;9.40;85.40;;;;;;5095185;28;20397;-78
2023/03/14 00:45:59;;;;;;;23.38;5.03;;;9.30;85.60;;;;;;5077953;28;20040;-77
2023/03/14 00:48:25;;;;;;;19.20;5.38;;;9.30;85.80;;;;;;5094779;28;20040;-79
2023/03/14 00:50:50;;;;;;;25.88;5.45;;;9.30;85.80;;;;;;5077971;28;20067;-78
2023/03/14 00:53:16;;;;;;;25.80;5.82;;;9.30;86.30;;;;;;5077804;28;20040;-79
2023/03/14 00:55:43;;;;;;;17.75;4.30;;;9.20;86.50;;;;;;5061066;28;20036;-78
2023/03/14 00:58:14;;;;;;;19.13;4.57;;;9.30;86.10;;;;;;5094737;28;20051;-78
2023/03/14 01:00:40;;;;;;;18.40;4.18;;;9.30;86.30;;;;;;5077846;28;20173;-78
2023/03/14 01:03:07;;;;;;;20.33;4.68;;;9.30;86.30;;;;;;5077871;28;20043;-78
2023/03/14 01:05:33;;;;;;;14.88;4.90;;;9.40;86.10;;;;;;5077760;28;20074;-79
2023/03/14 01:07:59;;;;;;;21.30;4.85;;;9.30;86.90;;;;;;5094537;28;20487;-78
2023/03/14 01:10:25;;;;;;;23.17;4.90;;;9.40;87.00;;;;;;5077586;28;20051;-78
2023/03/14 01:12:50;;;;;;;24.33;6.50;;;9.40;87.30;;;;;;5094474;28;20040;-79
2023/03/14 01:15:16;;;;;;;25.00;5.15;;;9.40;87.30;;;;;;5060851;28;20120;-78
2023/03/14 01:17:42;;;;;;;13.57;3.35;;;9.40;87.40;;;;;;5077610;28;20042;-79
2023/03/14 01:20:11;;;;;;;18.42;4.32;;;9.40;87.30;;;;;;5077333;28;20476;-78
2023/03/14 01:22:39;;;;;;;15.93;4.20;;;9.50;87.50;;;;;;5094218;28;20036;-78
2023/03/14 01:25:06;;;;;;;15.93;3.67;;;9.50;87.30;;;;;;5094199;28;20047;-78
2023/03/14 01:27:33;;;;;;;22.27;4.63;;;9.50;87.40;;;;;;5077653;28;20467;-78
2023/03/14 01:29:59;;;;;;;17.48;4.47;;;9.60;87.20;;;;;;5094079;28;20126;-78
2023/03/14 01:32:25;;;;;;;13.88;4.03;;;9.60;87.70;;;;;;5094007;28;20131;-79
2023/03/14 01:34:51;;;;;;;10.75;3.20;;;9.60;88.00;;;;;;5077127;28;20044;-79
2023/03/14 01:37:17;;;;;;;19.40;4.45;;;9.60;88.00;;;;;;5077115;28;20073;-79
2023/03/14 01:39:43;;;;;;;22.63;4.68;;;9.60;88.20;;;;;;5060274;28;20450;-79
2023/03/14 01:42:08;;;;;;;15.38;3.88;;;9.60;88.40;;;;;;5059396;28;20032;-78
2023/03/14 01:44:54;;;;;;;17.02;4.35;;;9.60;88.30;;;;;;5093945;28;20085;-77
2023/03/14 01:47:21;;;;;;;18.38;4.20;;;9.60;89.30;;;;;;5093702;28;20048;-78
2023/03/14 01:49:53;;;;;;;19.92;4.47;;;9.60;89.70;;;;;;5093752;28;20127;-79
2023/03/14 01:52:27;;;;;;;16.13;4.40;;;9.50;89.60;;;;;;5093816;28;20070;-79
2023/03/14 01:54:58;;;;;;;24.05;5.65;;;9.40;90.00;;;;;;5093614;28;20036;-78
2023/03/14 01:57:34;;;;;;;17.60;3.92;;;9.40;90.30;;;;;;5093827;28;20405;-79
2023/03/14 02:00:13;;;;;;;25.25;5.50;;;9.40;89.90;;;;;;5093601;28;20047;-78
2023/03/14 02:02:43;;;;;;;23.05;5.25;;;9.40;90.30;;;;;;5077288;28;20127;-79
2023/03/14 02:05:09;;;;;;;21.65;3.70;;;9.30;90.70;;;;;;5076235;28;20052;-79
2023/03/14 02:07:38;;;;;;;19.70;3.30;;;9.40;90.50;;;;;;5059888;28;20043;-79
2023/03/14 02:10:05;;;;;;;15.68;3.78;;;9.30;90.80;;;;;;5093430;28;20048;-79
2023/03/14 02:12:35;;;;;;;26.08;4.35;;;9.30;90.60;;;;;;5093306;28;20051;-79
2023/03/14 02:15:00;;;;;;;14.07;3.53;;;9.30;90.70;;;;;;5093361;28;20046;-79
2023/03/14 02:17:26;;;;;;;17.52;4.10;;;9.30;90.80;;;;;;5093127;28;20668;-79
2023/03/14 02:20:01;;;;;;;20.27;4.47;;;9.30;91.00;;;;;;5076215;28;20052;-78
2023/03/14 02:22:27;;;;;;;18.73;3.78;;;9.30;90.90;;;;;;5093101;28;20052;-78
2023/03/14 02:25:15;;;;;;;20.20;3.42;;;9.20;91.70;;;;;;5059852;28;20130;-78
2023/03/14 02:27:41;;;;;;;21.08;4.00;;;9.30;91.40;;;;;;5093380;28;20048;-78
2023/03/14 02:30:13;;;;;;;19.48;4.28;;;9.30;91.40;;;;;;5092847;28;20044;-79
2023/03/14 02:32:43;;;;;;;19.05;3.47;;;9.20;91.60;;;;;;5093044;28;20171;-79
2023/03/14 02:35:12;;;;;;;15.57;3.83;;;9.20;91.80;;;;;;5092871;28;20040;-79
2023/03/14 02:37:48;;;;;;;17.77;3.67;;;9.20;91.80;;;;;;5075862;28;20054;-79
2023/03/14 02:40:14;;;;;;;17.55;4.10;;;9.20;92.00;;;;;;5076219;28;20046;-79
2023/03/14 02:42:40;;;;;;;20.17;4.57;;;9.20;91.90;;;;;;5076197;28;20140;-79
2023/03/14 02:45:09;;;;;;;24.00;6.28;;;9.10;92.50;;;;;;5076132;28;20492;-79
2023/03/14 02:47:42;;;;;;;18.73;4.00;;;9.20;92.10;;;;;;5075786;28;20036;-79
2023/03/14 02:50:12;;;;;;;17.92;4.05;;;9.20;91.80;;;;;;5075631;28;20044;-78
2023/03/14 02:52:38;;;;;;;25.83;5.13;;;9.10;92.90;;;;;;5092399;28;20142;-78
2023/03/14 02:55:05;;;;;;;24.52;7.32;;;9.10;93.40;;;;;;5092401;28;20127;-78
2023/03/14 02:57:31;;;;;;;18.00;4.93;;;9.00;93.30;;;;;;5075756;28;20047;-79
2023/03/14 03:00:00;;;;;;;27.48;4.72;;;9.00;93.40;;;;;;5092582;28;20043;-79
2023/03/14 03:02:27;;;;;;;27.15;5.72;;;9.00;93.60;;;;;;5075526;28;20119;-79
2023/03/14 03:04:53;;;;;;;22.25;5.05;;;9.00;93.10;;;;;;5075140;28;20044;-79
2023/03/14 03:07:19;;;;;;;26.08;4.88;;;9.00;93.00;;;;;;5075301;28;20089;-78
2023/03/14 03:09:45;;;;;;;22.02;5.68;;;9.00;93.10;;;;;;5092365;28;20044;-76
2023/03/14 03:12:11;;;;;;;23.73;5.35;;;9.00;93.00;;;;;;5092478;28;20421;-76
2023/03/14 03:14:40;;;;;;;25.30;5.20;;;9.00;93.20;;;;;;5092609;28;20047;-78
2023/03/14 03:17:06;;;;;;;28.13;6.18;;;9.00;93.00;;;;;;5092486;28;20082;-77
2023/03/14 03:19:34;;;;;;;31.80;6.63;;;9.00;93.00;;;;;;5092087;28;20035;-78
2023/03/14 03:22:00;;;;;;;30.38;6.05;;;9.10;93.00;;;;;;5092076;28;20036;-78
2023/03/14 03:24:26;;;;;;;29.05;7.30;;;9.00;93.20;;;;;;5092179;28;20093;-77
2023/03/14 03:26:53;;;;;;;28.50;5.30;;;9.10;93.00;;;;;;5091857;28;20119;-78
2023/03/14 03:29:18;;;;;;;30.33;4.75;;;9.00;93.00;;;;;;5092118;28;20044;-77
2023/03/14 03:31:47;;;;;;;28.15;5.22;;;9.00;93.40;;;;;;5075301;28;20051;-77
2023/03/14 03:34:13;;;;;;;26.38;6.43;;;9.00;93.20;;;;;;5075443;28;20096;-78
2023/03/14 03:36:39;;;;;;;30.77;6.43;;;9.00;93.20;;;;;;5092211;28;20043;-78
2023/03/14 03:39:05;;;;;;;27.08;5.53;;;9.00;93.60;;;;;;5091559;28;20043;-76
2023/03/14 03:41:31;;;;;;;26.65;5.80;;;9.00;93.20;;;;;;5058348;28;20043;-77
2023/03/14 03:43:57;;;;;;;31.55;5.35;;;9.00;93.20;;;;;;5074791;28;20043;-78
2023/03/14 03:46:23;;;;;;;40.83;9.30;;;9.00;93.40;;;;;;5058067;28;20043;-78
2023/03/14 03:49:02;;;;;;;31.00;6.97;;;9.00;93.30;;;;;;5091495;28;20039;-78
2023/03/14 03:51:28;;;;;;;34.83;7.18;;;9.00;93.10;;;;;;5074571;28;20075;-78
2023/03/14 03:53:55;;;;;;;33.92;5.15;;;9.00;93.30;;;;;;5091629;28;20075;-77
2023/03/14 03:56:21;;;;;;;40.10;8.75;;;8.90;93.30;;;;;;5074846;28;20047;-78
2023/03/14 03:58:46;;;;;;;39.83;6.57;;;8.90;93.50;;;;;;5091280;28;20048;-76
2023/03/14 04:01:12;;;;;;;31.23;6.32;;;8.90;93.40;;;;;;5058177;28;20044;-77
2023/03/14 04:03:38;;;;;;;34.00;6.47;;;9.00;93.20;;;;;;5074558;28;20036;-78
2023/03/14 04:06:12;;;;;;;26.10;6.18;;;9.00;92.90;;;;;;5097473;28;20131;-77
2023/03/14 04:08:40;;;;;;;30.95;6.00;;;9.00;93.30;;;;;;5098111;28;20051;-78
2023/03/14 04:11:06;;;;;;;27.88;5.78;;;9.00;93.30;;;;;;5098133;28;20039;-79
2023/03/14 04:13:31;;;;;;;31.10;7.22;;;9.00;92.90;;;;;;5098255;28;20043;-78
2023/03/14 04:15:57;;;;;;;26.75;6.40;;;9.00;93.20;;;;;;5081221;28;20608;-78
2023/03/14 04:18:26;;;;;;;24.98;4.88;;;9.00;93.00;;;;;;5098036;28;20040;-78
2023/03/14 04:20:53;;;;;;;28.52;6.65;;;9.00;93.00;;;;;;5081424;28;20122;-78
2023/03/14 04:23:19;;;;;;;27.08;5.53;;;9.00;93.00;;;;;;5081207;28;20128;-77
2023/03/14 04:25:44;;;;;;;24.00;6.03;;;9.00;93.00;;;;;;5098295;28;20119;-78
2023/03/14 04:28:10;;;;;;;27.42;7.93;;;9.00;93.10;;;;;;5098038;28;20563;-76
2023/03/14 04:30:36;;;;;;;20.23;6.03;;;9.00;93.30;;;;;;5098189;28;20040;-78
2023/03/14 04:33:02;;;;;;;20.52;5.28;;;9.00;93.60;;;;;;5097723;28;20450;-76
2023/03/14 04:35:29;;;;;;;25.40;6.10;;;8.90;93.50;;;;;;5064697;28;20212;-76
2023/03/14 04:37:55;;;;;;;25.17;6.97;;;8.90;93.90;;;;;;5098255;28;20078;-75
2023/03/14 04:40:21;;;;;;;28.15;6.65;;;8.90;94.00;;;;;;5081736;28;20071;-76
2023/03/14 04:42:46;;;;;;;26.77;5.88;;;8.90;94.00;;;;;;5098413;28;20078;-77
2023/03/14 04:45:12;;;;;;;25.88;6.97;;;8.90;93.90;;;;;;5081400;28;20430;-77
2023/03/14 04:47:38;;;;;;;25.35;6.82;;;8.80;94.30;;;;;;5064990;28;20036;-77
2023/03/14 04:50:04;;;;;;;16.63;5.70;;;8.80;94.60;;;;;;5081145;28;20040;-78
2023/03/14 04:52:30;;;;;;;19.25;6.10;;;8.70;95.20;;;;;;5098601;28;20040;-78
2023/03/14 04:54:55;;;;;;;25.88;6.63;;;8.80;95.00;;;;;;5098460;28;20489;-76
2023/03/14 04:57:21;;;;;;;18.88;5.47;;;8.70;95.00;;;;;;5048401;28;20039;-77
2023/03/14 04:59:47;;;;;;;20.33;5.80;;;8.70;95.10;;;;;;5081247;28;20092;-77
2023/03/14 05:02:12;;;;;;;13.13;5.57;;;8.80;95.20;;;;;;5097817;28;20040;-76
2023/03/14 05:04:38;;;;;;;18.90;6.03;;;8.70;95.40;;;;;;5080551;28;20036;-77
2023/03/14 05:07:04;;;;;;;15.85;6.60;;;8.70;95.10;;;;;;5081049;28;20047;-78
2023/03/14 05:09:29;;;;;;;19.55;6.50;;;8.70;95.50;;;;;;5080743;28;20453;-77
2023/03/14 05:11:55;;;;;;;18.38;6.47;;;8.70;95.50;;;;;;5097763;28;20032;-77
2023/03/14 05:14:22;;;;;;;10.88;4.95;;;8.70;96.20;;;;;;5097549;28;20051;-77
2023/03/14 05:16:47;;;;;;;14.73;7.15;;;8.70;95.80;;;;;;5094137;28;20117;-77
2023/03/14 05:19:13;;;;;;;11.00;6.80;;;8.70;95.80;;;;;;5077661;28;20040;-78
2023/03/14 05:21:39;;;;;;;12.93;5.97;;;8.70;95.90;;;;;;5094451;28;20039;-76
2023/03/14 05:24:05;;;;;;;12.63;6.15;;;8.80;95.80;;;;;;5094932;28;20036;-77
2023/03/14 05:26:30;;;;;;;17.27;8.23;;;8.80;95.60;;;;;;5061638;28;20079;-75
2023/03/14 05:28:56;;;;;;;17.08;8.77;;;8.70;95.90;;;;;;5094556;28;20076;-77
2023/03/14 05:31:22;;;;;;;17.40;7.82;;;8.70;95.90;;;;;;5094353;28;20088;-78
2023/03/14 05:33:47;;;;;;;10.80;6.30;;;8.70;95.70;;;;;;5093962;28;20073;-77
2023/03/14 05:36:13;;;;;;;17.63;6.30;;;8.70;95.60;;;;;;5094548;28;20044;-77
2023/03/14 05:38:39;;;;;;;18.67;5.88;;;8.70;95.80;;;;;;5094583;28;20074;-78
2023/03/14 05:41:05;;;;;;;14.60;5.85;;;8.70;96.20;;;;;;5094425;28;20400;-76
2023/03/14 05:43:30;;;;;;;14.45;6.00;;;8.70;95.90;;;;;;5077592;28;20131;-79
2023/03/14 05:45:56;;;;;;;10.48;4.25;;;8.70;96.00;;;;;;5077915;28;20452;-75
2023/03/14 05:48:22;;;;;;;11.93;4.70;;;8.70;96.00;;;;;;5077525;28;20047;-76
2023/03/14 05:50:48;;;;;;;13.70;3.53;;;8.70;95.80;;;;;;5060988;28;20072;-76
2023/03/14 05:53:14;;;;;;;7.43;2.97;;;8.70;96.00;;;;;;5094853;28;20496;-76
2023/03/14 05:55:40;;;;;;;7.30;2.40;;;8.60;96.00;;;;;;5094086;28;20040;-77
2023/03/14 05:58:06;;;;;;;8.93;1.85;;;8.60;95.90;;;;;;5093891;28;20055;-77
2023/03/14 06:00:32;;;;;;;4.97;1.73;;;8.40;95.60;;;;;;5093695;28;20040;-77
2023/03/14 06:02:58;;;;;;;6.68;1.38;;;8.30;95.60;;;;;;5093773;28;20062;-76
2023/03/14 06:05:24;;;;;;;4.43;1.38;;;8.10;95.40;;;;;;5076452;28;20052;-78
2023/03/14 06:07:49;;;;;;;14.35;2.28;;;8.00;95.10;;;;;;5076541;28;20043;-77
2023/03/14 06:10:15;;;;;;;7.90;1.65;;;7.80;94.80;;;;;;5076429;28;20044;-75
2023/03/14 06:12:41;;;;;;;13.65;2.63;;;7.60;94.50;;;;;;5076135;28;20123;-78
2023/03/14 06:15:07;;;;;;;14.30;2.47;;;7.60;94.30;;;;;;5059256;28;20040;-75
2023/03/14 06:17:33;;;;;;;9.73;2.30;;;7.40;93.50;;;;;;5092814;28;20044;-78
2023/03/14 06:19:58;;;;;;;6.95;1.90;;;7.30;93.10;;;;;;5076221;28;20144;-79
2023/03/14 06:22:24;;;;;;;8.50;1.92;;;7.10;92.90;;;;;;5059901;28;20480;-76
2023/03/14 06:24:50;;;;;;;7.70;1.27;;;7.00;92.70;;;;;;5076232;28;20467;-78
2023/03/14 06:27:16;;;;;;;6.50;1.77;;;6.90;92.50;;;;;;5059249;28;20036;-79
2023/03/14 06:29:41;;;;;;;7.88;1.52;;;6.80;92.00;;;;;;5092938;28;20036;-78
2023/03/14 06:32:07;;;;;;;5.93;1.30;;;6.60;92.00;;;;;;5075917;28;20123;-79
2023/03/14 06:34:33;;;;;;;7.38;1.13;;;6.50;91.50;;;;;;5093021;28;20055;-80
2023/03/14 06:36:59;;;;;;;6.45;1.33;;;6.40;91.40;;;;;;5092796;28;20180;-79
2023/03/14 06:39:24;;;;;;;7.07;1.15;;;6.30;91.70;;;;;;5092740;28;20098;-79
2023/03/14 06:41:50;;;;;;;4.30;0.80;;;6.20;91.60;;;;;;5092904;28;20043;-77
2023/03/14 06:44:16;;;;;;;6.05;1.15;;;6.10;91.80;;;;;;5075939;28;20028;-78
2023/03/14 06:46:41;;;;;;;6.50;1.40;;;6.10;91.90;;;;;;5092575;28;20496;-77
2023/03/14 06:49:07;;;;;;;11.63;1.05;;;6.10;91.80;;;;;;5075671;28;20055;-76
2023/03/14 06:51:33;;;;;;;5.22;1.08;;;6.00;92.00;;;;;;5059004;28;20040;-78
2023/03/14 06:53:59;;;;;;;4.78;0.80;;;5.90;91.70;;;;;;5058827;28;20040;-77
2023/03/14 06:56:25;;;;;;;3.38;0.80;;;5.90;91.90;;;;;;5058909;28;20097;-77
2023/03/14 06:58:51;;;;;;;4.20;0.57;;;5.90;91.90;;;;;;5075312;28;20050;-78
2023/03/14 07:01:24;;;;;;;6.07;0.82;;;5.90;91.70;;;;;;5058699;28;20043;-78
2023/03/14 07:03:49;;;;;;;6.45;0.98;;;5.90;91.60;;;;;;5092391;28;20442;-77
2023/03/14 07:06:15;;;;;;;4.53;0.95;;;5.80;91.60;;;;;;5091818;28;20048;-77
2023/03/14 07:08:41;;;;;;;6.80;1.13;;;5.80;91.90;;;;;;5075575;28;20043;-77
2023/03/14 07:11:07;;;;;;;5.18;0.90;;;5.80;91.90;;;;;;5092300;28;20439;-77
2023/03/14 07:13:33;;;;;;;6.63;1.25;;;5.80;91.90;;;;;;5075167;28;20554;-77
2023/03/14 07:15:59;;;;;;;7.70;1.40;;;5.70;91.60;;;;;;5075282;28;20048;-77
2023/03/14 07:18:24;;;;;;;4.78;0.90;;;5.70;91.80;;;;;;5091880;28;20039;-77
2023/03/14 07:20:50;;;;;;;3.63;0.88;;;5.70;91.80;;;;;;5058436;28;20032;-79
2023/03/14 07:23:16;;;;;;;6.93;1.70;;;5.70;91.50;;;;;;5091845;28;20036;-78
2023/03/14 07:25:41;;;;;;;4.00;1.10;;;5.70;91.50;;;;;;5075392;28;20075;-78
2023/03/14 07:28:07;;;;;;;6.85;2.40;;;5.70;91.60;;;;;;5058520;28;20099;-77
2023/03/14 07:30:33;;;;;;;5.60;0.90;;;5.70;91.60;;;;;;5074966;28;20489;-78
2023/03/14 07:32:58;;;;;;;7.15;1.48;;;5.70;91.50;;;;;;5074763;28;20043;-78
2023/03/14 07:35:24;;;;;;;4.25;1.05;;;5.70;91.40;;;;;;5074852;28;20044;-77
2023/03/14 07:37:50;;;;;;;4.05;1.02;;;5.70;91.30;;;;;;5074896;28;20403;-78
2023/03/14 07:40:15;;;;;;;8.30;1.30;;;5.70;91.40;;;;;;5074099;28;20044;-78
2023/03/14 07:42:44;;;;;;;7.25;1.60;;;5.70;91.50;;;;;;5091556;28;20036;-78
2023/03/14 07:45:10;;;;;;;14.57;2.72;;;5.70;91.30;;;;;;5058066;28;20032;-77
2023/03/14 07:47:36;;;;;;;6.25;1.38;;;5.70;91.20;;;;;;5091565;28;20072;-78
2023/03/14 07:50:04;;;;;;;7.82;1.95;;;5.70;91.00;;;;;;5074984;28;20078;-77
2023/03/14 07:52:30;;;;;;;6.15;1.30;;;5.70;91.00;;;;;;5074636;28;20545;-78
2023/03/14 07:54:55;;;;;;;9.23;2.42;;;5.80;90.80;;;;;;5074769;28;20052;-78
2023/03/14 07:57:23;;;;;;;10.73;1.67;;;5.80;90.30;;;;;;5091371;28;20039;-78
2023/03/14 07:59:49;;;;;;;9.95;1.75;;;5.90;90.20;;;;;;5091383;28;20048;-77
2023/03/14 08:02:15;;;;;;;5.80;1.98;;;5.90;90.10;;;;;;5074611;28;20484;-78
2023/03/14 08:04:41;;;;;;;7.88;2.22;;;5.90;90.20;;;;;;5057929;28;20046;-79
2023/03/14 08:07:06;;;;;;;4.47;1.45;;;6.00;90.00;;;;;;5057754;28;20060;-79
2023/03/14 08:09:32;;;;;;;9.60;2.75;;;6.00;90.10;;;;;;5091603;28;20383;-77
2023/03/14 08:11:58;;;;;;;11.48;1.95;;;6.00;90.10;;;;;;5091333;28;20484;-77
2023/03/14 08:14:24;;;;;;;10.80;2.53;;;6.10;89.80;;;;;;5091222;28;20100;-77
2023/03/14 08:16:50;;;;;;;12.95;2.30;;;6.10;89.70;;;;;;5091271;28;20040;-78
2023/03/14 08:19:16;;;;;;;8.75;1.83;;;6.10;89.80;;;;;;5091144;28;20079;-77
2023/03/14 08:21:42;;;;;;;10.63;2.30;;;6.10;89.90;;;;;;5074610;28;20040;-78
2023/03/14 08:24:07;;;;;;;7.85;1.92;;;6.10;90.10;;;;;;5057919;28;20464;-79
2023/03/14 08:26:33;;;;;;;10.27;1.70;;;6.10;89.70;;;;;;5074286;28;20504;-78
2023/03/14 08:28:59;;;;;;;9.45;2.08;;;6.10;89.50;;;;;;5074344;28;20086;-78
2023/03/14 08:31:25;;;;;;;11.82;2.53;;;6.20;89.20;;;;;;5091409;28;20036;-79
2023/03/14 08:33:52;;;;;;;12.82;2.42;;;6.30;89.10;;;;;;5090982;28;20137;-78
2023/03/14 08:36:19;;;;;;;10.25;2.33;;;6.30;88.20;;;;;;5074368;28;20150;-77
2023/03/14 08:38:44;;;;;;;12.93;2.60;;;6.30;87.80;;;;;;5091157;28;20437;-79
2023/03/14 08:41:11;;;;;;;14.15;2.88;;;6.50;87.20;;;;;;5090967;28;20036;-79
2023/03/14 08:43:36;;;;;;;13.35;2.10;;;6.60;87.10;;;;;;5091003;28;20044;-77
2023/03/14 08:46:03;;;;;;;18.63;3.22;;;6.60;87.00;;;;;;5091310;28;20032;-78
2023/03/14 08:48:30;;;;;;;15.52;2.30;;;6.70;86.60;;;;;;5074196;28;20050;-78
2023/03/14 08:50:57;;;;;;;14.05;3.47;;;6.70;86.70;;;;;;5075532;28;20052;-78
2023/03/14 08:53:23;;;;;;;14.85;2.65;;;6.70;86.40;;;;;;5050900;28;20492;-78
2023/03/14 08:55:55;;;;;;;19.92;4.13;;;6.70;86.10;;;;;;5087111;28;20051;-78
2023/03/14 08:58:22;;;;;;;18.55;3.55;;;6.70;86.20;;;;;;5070364;28;20048;-78
2023/03/14 09:00:48;;;;;;;18.80;3.45;;;6.60;86.20;;;;;;5054496;28;20040;-80
2023/03/14 09:03:14;;;;;;;15.80;3.35;;;6.60;86.80;;;;;;5037099;28;20048;-81
2023/03/14 09:05:40;;;;;;;19.40;2.85;;;6.60;86.30;;;;;;5070825;28;20381;-80
2023/03/14 09:08:06;;;;;;;11.82;2.63;;;6.50;85.90;;;;;;5069092;28;20077;-78
2023/03/14 09:10:31;;;;;;;14.40;3.00;;;6.50;85.10;;;;;;5069925;28;20139;-79
2023/03/14 09:12:58;;;;;;;11.13;2.38;;;6.40;85.00;;;;;;5085938;28;20079;-78
2023/03/14 09:15:24;;;;;;;11.00;2.78;;;6.40;84.90;;;;;;5068852;28;20519;-79
2023/03/14 09:17:49;;;;;;;15.65;2.65;;;6.40;84.10;;;;;;5068893;28;20032;-79
2023/03/14 09:20:15;;;;;;;14.68;4.03;;;6.50;83.50;;;;;;5070034;28;20043;-79
2023/03/14 09:22:41;;;;;;;13.38;2.50;;;6.50;82.60;;;;;;5053402;28;20499;-79
2023/03/14 09:25:07;;;;;;;15.13;3.05;;;6.50;82.30;;;;;;5069930;28;20043;-79
2023/03/14 09:27:33;;;;;;;18.20;5.07;;;6.60;81.20;;;;;;5070147;28;20049;-79
2023/03/14 09:29:59;;;;;;;20.70;5.18;;;6.60;81.30;;;;;;5085715;28;20114;-79
2023/03/14 09:32:24;;;;;;;15.82;3.10;;;6.60;81.80;;;;;;5086093;28;20119;-77
2023/03/14 09:34:50;;;;;;;15.18;3.65;;;6.70;81.40;;;;;;5084660;28;20040;-79
2023/03/14 09:37:16;;;;;;;16.27;3.40;;;6.70;79.90;;;;;;5069880;28;20063;-78
2023/03/14 09:39:42;;;;;;;16.08;4.95;;;6.70;78.30;;;;;;5036305;28;20044;-79
2023/03/14 09:42:15;;;;;;;18.10;4.18;;;6.70;78.40;;;;;;5069468;28;20044;-79
2023/03/14 09:45:27;;;;;;;15.85;2.67;;;6.80;77.80;;;;;;5069683;28;20042;-80
2023/03/14 09:47:56;;;;;;;16.48;3.45;;;6.80;76.00;;;;;;5083299;28;20055;-78
2023/03/14 09:50:24;;;;;;;13.57;3.03;;;6.80;74.70;;;;;;5069428;28;20042;-79
2023/03/14 09:52:55;;;;;;;16.63;2.30;;;6.90;74.70;;;;;;5086658;28;20177;-78
2023/03/14 09:55:22;;;;;;;8.27;2.17;;;6.90;74.50;;;;;;5069813;28;20130;-78
2023/03/14 09:57:57;;;;;;;15.40;3.35;;;6.90;73.40;;;;;;5052438;28;20051;-77
2023/03/14 10:00:28;;;;;;;23.52;3.70;;;6.80;73.10;;;;;;5069534;28;20051;-78
2023/03/14 10:02:59;;;;;;;11.27;3.53;;;6.80;72.90;;;;;;5067040;28;20055;-78
2023/03/14 10:05:27;;;;;;;11.95;3.63;;;6.80;71.70;;;;;;5069164;28;20079;-78
2023/03/14 10:07:53;;;;;;;9.27;2.05;;;6.80;71.40;;;;;;5083850;28;20109;-77
2023/03/14 10:10:22;;;;;;;16.88;3.83;;;6.80;71.50;;;;;;5049655;28;20040;-79
2023/03/14 10:13:09;;;;;;;12.50;3.17;;;6.80;70.70;;;;;;5083341;28;20499;-78
2023/03/14 10:15:36;;;;;;;12.15;3.20;;;7.00;70.80;;;;;;5069253;28;20048;-78
2023/03/14 10:18:03;;;;;;;12.38;2.30;;;7.00;70.10;;;;;;5083380;28;20040;-78
2023/03/14 10:20:33;;;;;;;10.55;2.35;;;7.00;67.80;;;;;;5049184;28;20403;-78
2023/03/14 10:23:20;;;;;;;12.38;2.10;;;7.10;68.80;;;;;;5083570;28;20036;-78
2023/03/14 10:26:18;;;;;;;10.80;1.98;;;7.10;69.20;;;;;;5057955;28;20044;-77
2023/03/14 10:28:47;;;;;;;12.38;3.03;;;7.20;69.00;;;;;;5067000;28;20055;-78
2023/03/14 10:31:13;;;;;;;25.65;9.70;;;7.30;68.20;;;;;;5072837;28;20082;-77
2023/03/14 10:33:39;;;;;;;93.40;38.60;;;7.30;67.20;;;;;;5090242;28;20145;-79
2023/03/14 10:36:20;;;;;;;12.75;3.20;;;7.20;65.90;;;;;;5072526;28;20060;-78
2023/03/14 10:38:46;;;;;;;6.07;1.40;;;7.20;65.10;;;;;;5088981;28;20147;-78
2023/03/14 10:41:26;;;;;;;10.60;2.65;;;7.30;66.00;;;;;;5072501;28;20555;-79
2023/03/14 10:43:56;;;;;;;10.98;3.03;;;7.30;64.00;;;;;;5087682;28;20893;-80
2023/03/14 10:46:25;;;;;;;9.38;2.63;;;7.40;65.40;;;;;;5071686;28;20040;-78
2023/03/14 10:48:52;;;;;;;11.20;1.98;;;7.40;65.40;;;;;;5088936;28;20052;-79
2023/03/14 10:51:38;;;;;;;10.30;2.50;;;7.30;63.30;;;;;;5086919;28;20051;-79
2023/03/14 10:54:18;;;;;;;11.60;2.50;;;7.20;63.60;;;;;;5071423;28;20064;-78
2023/03/14 10:56:44;;;;;;;6.88;1.50;;;7.20;65.30;;;;;;5085648;28;20039;-79
2023/03/14 10:59:15;;;;;;;5.00;1.25;;;7.30;65.40;;;;;;5070118;28;20047;-79
2023/03/14 11:02:03;;;;;;;6.85;0.82;;;7.50;62.80;;;;;;5088560;28;20046;-78
2023/03/14 11:04:44;;;;;;;8.63;1.92;;;7.60;61.30;;;;;;5088543;28;20419;-78
2023/03/14 11:07:38;;;;;;;7.65;1.63;;;7.70;61.50;;;;;;5070981;28;20532;-77
2023/03/14 11:10:26;;;;;;;7.87;1.83;;;7.80;59.60;;;;;;5087849;28;20060;-76
2023/03/14 11:13:24;;;;;;;6.32;1.52;;;7.80;57.10;;;;;;5070566;28;20506;-77
2023/03/14 11:16:21;;;;;;;6.78;1.35;;;7.80;58.20;;;;;;5070464;28;20044;-77
2023/03/14 11:19:05;;;;;;;6.28;1.52;;;7.90;58.50;;;;;;5086052;28;20078;-78
2023/03/14 11:22:06;;;;;;;6.07;1.40;;;8.00;58.00;;;;;;5085273;28;20044;-78
2023/03/14 11:24:52;;;;;;;22.48;2.42;;;8.10;58.10;;;;;;5087184;28;20442;-77
2023/03/14 11:27:59;;;;;;;4.90;1.58;;;8.10;56.10;;;;;;5088784;28;20059;-78
2023/03/14 11:30:45;;;;;;;8.65;2.22;;;8.10;56.20;;;;;;4991498;28;20038;-78
2023/03/14 11:33:23;;;;;;;7.85;2.13;;;8.10;56.90;;;;;;5068781;28;20463;-78
2023/03/14 11:36:10;;;;;;;7.60;2.08;;;8.10;58.20;;;;;;5086423;28;20044;-78
2023/03/14 11:38:46;;;;;;;8.27;1.80;;;8.30;58.20;;;;;;5069902;28;20044;-77
2023/03/14 11:41:19;;;;;;;6.75;2.40;;;8.50;59.90;;;;;;5087341;28;20522;-78
2023/03/14 11:43:48;;;;;;;8.85;1.80;;;8.50;57.50;;;;;;5087329;28;20162;-78
2023/03/14 11:46:21;;;;;;;16.40;3.10;;;8.50;59.00;;;;;;5086891;28;20062;-78
2023/03/14 11:49:22;;;;;;;8.13;1.73;;;8.40;59.30;;;;;;5071035;28;20701;-78
2023/03/14 11:51:54;;;;;;;5.55;1.98;;;8.20;59.80;;;;;;5031836;28;20144;-78
2023/03/14 11:54:46;;;;;;;9.68;3.03;;;7.90;60.30;;;;;;5071211;28;20051;-79
2023/03/14 11:57:20;;;;;;;8.18;2.65;;;8.00;62.90;;;;;;5087892;28;20048;-79
2023/03/14 12:00:12;;;;;;;7.93;1.67;;;8.00;63.80;;;;;;5068321;28;20046;-78
2023/03/14 12:02:53;;;;;;;8.13;1.42;;;8.10;62.20;;;;;;5087853;28;20060;-79
2023/03/14 12:05:48;;;;;;;8.27;1.33;;;8.10;62.10;;;;;;5071497;28;20042;-78
2023/03/14 12:08:23;;;;;;;9.30;2.22;;;8.00;61.90;;;;;;5086715;28;20056;-78
2023/03/14 12:11:00;;;;;;;8.57;1.77;;;7.90;59.90;;;;;;5071404;28;20071;-79
2023/03/14 12:13:34;;;;;;;7.05;2.33;;;8.00;57.70;;;;;;5088601;28;20040;-79
2023/03/14 12:16:04;;;;;;;26.23;11.40;;;8.10;57.60;;;;;;5086918;28;20066;-78
2023/03/14 12:18:32;;;;;;;11.02;2.17;;;8.10;57.90;;;;;;5070686;28;20047;-78
2023/03/14 12:21:04;;;;;;;4.38;1.27;;;8.10;58.60;;;;;;5086495;28;20051;-78
2023/03/14 12:23:49;;;;;;;8.68;1.40;;;8.10;57.60;;;;;;5071185;28;20376;-78
2023/03/14 12:26:16;;;;;;;;;;;8.00;58.00;;;;;;5089270;28;20070;-78
2023/03/14 12:28:48;;;;;;;6.00;1.13;;;7.80;57.80;;;;;;5073573;28;19937;-78
2023/03/14 12:31:29;;;;;;;7.55;1.63;;;7.90;58.20;;;;;;5073942;28;20043;-78
2023/03/14 12:34:03;;;;;;;4.20;1.05;;;8.00;56.80;;;;;;5074842;28;20078;-78
2023/03/14 12:36:59;;;;;;;5.47;1.77;;;8.10;53.90;;;;;;5058439;28;20059;-78
2023/03/14 12:39:36;;;;;;;5.20;1.38;;;8.10;52.80;;;;;;5081638;28;20127;-78
2023/03/14 12:42:16;;;;;;;5.05;1.50;;;8.20;54.60;;;;;;5073033;28;20300;-78
2023/03/14 12:44:48;;;;;;;9.50;1.77;;;8.10;55.40;;;;;;5073840;28;20137;-79
2023/03/14 12:47:19;;;;;;;7.80;1.95;;;8.10;56.60;;;;;;5091541;28;20046;-77
2023/03/14 12:49:48;;;;;;;8.85;1.63;;;8.20;58.30;;;;;;5073465;28;20055;-78
2023/03/14 12:52:18;;;;;;;6.00;2.13;;;8.30;58.60;;;;;;5091174;28;20403;-78
2023/03/14 12:54:53;;;;;;;5.97;1.30;;;8.50;57.20;;;;;;5092153;28;20407;-78
2023/03/14 12:57:33;;;;;;;8.25;2.20;;;8.60;57.20;;;;;;5090925;28;20535;-77
2023/03/14 13:00:07;;;;;;;9.23;1.55;;;8.60;54.10;;;;;;5074371;28;20051;-77
2023/03/14 13:02:43;;;;;;;7.60;1.38;;;8.50;56.00;;;;;;5074786;28;20036;-79